createdAt,value
2023-01-30T00:09:48.643Z,0.00
2023-01-30T00:19:55.870Z,0.00
2023-01-30T00:30:03.788Z,0.00
2023-01-30T00:40:12.526Z,0.00
2023-01-30T00:50:19.429Z,0.00
2023-01-30T01:00:26.473Z,0.00
2023-01-30T01:10:33.269Z,0.00
2023-01-30T01:20:41.135Z,0.00
2023-01-30T01:30:48.654Z,0.00
2023-01-30T01:40:55.432Z,0.00
2023-01-30T01:51:02.786Z,0.00
2023-01-30T02:01:09.759Z,0.00
2023-01-30T02:11:17.664Z,0.00
2023-01-30T02:21:24.645Z,0.00
2023-01-30T02:31:31.760Z,0.00
2023-01-30T02:41:38.636Z,0.00
2023-01-30T02:51:46.102Z,0.00
2023-01-30T03:01:53.449Z,0.00
2023-01-30T03:12:00.959Z,0.00
2023-01-30T03:22:08.992Z,0.00
2023-01-30T03:32:16.101Z,0.00
2023-01-30T03:42:23.157Z,0.00
2023-01-30T03:52:29.962Z,0.00
2023-01-30T04:02:37.235Z,0.00
2023-01-30T04:12:44.110Z,0.00
2023-01-30T04:22:51.399Z,0.00
2023-01-30T04:32:58.128Z,0.00
2023-01-30T04:43:05.263Z,0.00
2023-01-30T04:53:12.335Z,0.00
2023-01-30T05:03:18.931Z,0.00
2023-01-30T05:13:24.951Z,516.00
2023-01-30T05:23:32.074Z,504.00
2023-01-30T05:33:38.975Z,500.00
2023-01-30T05:43:45.386Z,500.00
2023-01-30T05:53:52.683Z,500.00
2023-01-30T06:03:59.761Z,500.00
2023-01-30T06:14:06.608Z,500.00
2023-01-30T06:24:13.366Z,500.00
2023-01-30T06:34:20.439Z,500.00
2023-01-30T06:44:28.038Z,500.00
2023-01-30T06:54:34.668Z,504.00
2023-01-30T07:04:41.832Z,504.00
2023-01-30T07:14:48.835Z,508.00
2023-01-30T07:24:55.959Z,508.00
2023-01-30T07:35:05.768Z,516.00
2023-01-30T07:45:13.133Z,512.00
2023-01-30T07:55:20.436Z,512.00
2023-01-30T08:05:27.233Z,516.00
2023-01-30T08:15:34.208Z,524.00
2023-01-30T08:25:41.090Z,548.00
2023-01-30T08:35:48.469Z,540.00
2023-01-30T08:45:55.381Z,572.00
2023-01-30T08:56:01.253Z,708.00
2023-01-30T09:06:07.014Z,680.00
2023-01-30T09:16:14.338Z,592.00
2023-01-30T09:26:21.109Z,632.00
2023-01-30T09:36:28.128Z,624.00
2023-01-30T09:46:35.287Z,692.00
2023-01-30T09:56:42.221Z,628.00
2023-01-30T10:06:49.435Z,664.00
2023-01-30T10:16:56.705Z,784.00
2023-01-30T10:27:04.841Z,1272.00
2023-01-30T10:37:12.567Z,612.00
2023-01-30T10:47:22.131Z,600.00
2023-01-30T10:57:30.935Z,572.00
2023-01-30T11:07:37.798Z,588.00
2023-01-30T11:17:44.648Z,760.00
2023-01-30T11:27:52.094Z,624.00
2023-01-30T11:37:59.686Z,656.00
2023-01-30T11:48:07.867Z,628.00
2023-01-30T11:58:17.307Z,592.00
2023-01-30T12:08:39.446Z,568.00
2023-01-30T12:18:36.166Z,804.00
2023-01-30T12:28:43.177Z,764.00
2023-01-30T12:38:50.341Z,624.00
2023-01-30T12:59:08.053Z,648.00
2023-01-30T13:09:14.315Z,576.00
2023-01-30T13:19:23.081Z,556.00
2023-01-30T13:29:32.328Z,620.00
2023-01-30T13:39:42.599Z,528.00
2023-01-30T13:49:50.370Z,520.00
2023-01-30T13:59:57.917Z,508.00
2023-01-30T14:10:04.441Z,528.00
2023-01-30T14:20:11.527Z,532.00
2023-01-30T14:30:19.454Z,604.00
2023-01-30T14:40:26.341Z,624.00
2023-01-30T14:50:34.129Z,536.00
2023-01-30T15:00:40.754Z,528.00
2023-01-30T15:10:46.938Z,540.00
2023-01-30T15:20:53.587Z,528.00
2023-01-30T15:31:00.885Z,516.00
2023-01-30T15:41:07.769Z,504.00
2023-01-30T15:51:15.118Z,504.00
2023-01-30T16:01:22.339Z,504.00
2023-01-30T16:11:28.707Z,504.00
2023-01-30T16:21:35.898Z,500.00
2023-01-30T16:31:43.277Z,500.00
2023-01-30T16:41:50.145Z,500.00
2023-01-30T16:51:57.511Z,500.00
2023-01-30T17:02:05.303Z,500.00
2023-01-30T17:12:12.414Z,500.00
2023-01-30T17:22:19.441Z,500.00
2023-01-30T17:32:26.800Z,0.00
2023-01-30T17:42:33.284Z,0.00
2023-01-30T17:52:40.462Z,0.00
2023-01-30T18:02:46.780Z,0.00
2023-01-30T18:12:53.309Z,0.00
2023-01-30T18:22:59.759Z,0.00
2023-01-30T18:33:07.000Z,0.00
2023-01-30T18:43:13.617Z,0.00
2023-01-30T18:53:20.611Z,0.00
2023-01-30T19:03:26.630Z,0.00
2023-01-30T19:13:33.560Z,0.00
2023-01-30T19:23:40.821Z,0.00
2023-01-30T19:33:48.122Z,0.00
2023-01-30T19:43:55.183Z,0.00
2023-01-30T19:54:02.311Z,0.00
2023-01-30T20:04:08.980Z,0.00
2023-01-30T20:14:16.135Z,0.00
2023-01-30T20:24:22.946Z,0.00
2023-01-30T20:34:29.913Z,0.00
2023-01-30T20:44:37.459Z,0.00
2023-01-30T20:54:44.253Z,0.00
2023-01-30T21:04:51.343Z,0.00
2023-01-30T21:14:58.573Z,0.00
2023-01-30T21:25:05.621Z,0.00
2023-01-30T21:35:13.016Z,0.00
2023-01-30T21:45:20.229Z,0.00
2023-01-30T21:55:27.826Z,0.00
2023-01-30T22:05:34.558Z,0.00
2023-01-30T22:15:41.834Z,0.00
2023-01-30T22:25:48.844Z,0.00
2023-01-30T22:35:55.762Z,0.00
2023-01-30T22:46:01.565Z,0.00
2023-01-30T22:56:07.845Z,0.00
2023-01-30T23:06:14.907Z,0.00
2023-01-30T23:16:21.536Z,0.00
2023-01-30T23:26:29.146Z,0.00
2023-01-30T23:36:36.542Z,0.00
2023-01-30T23:46:42.863Z,0.00
2023-01-30T23:56:49.879Z,0.00
